createdAt,value
2022-10-17T00:00:31.032Z,95388.00
2022-10-17T00:02:57.893Z,95387.50
2022-10-17T00:05:25.093Z,95391.28
2022-10-17T00:07:52.698Z,95408.78
2022-10-17T00:10:20.079Z,95399.94
2022-10-17T00:12:46.820Z,95385.56
2022-10-17T00:15:19.406Z,95402.59
2022-10-17T00:17:45.857Z,95402.09
2022-10-17T00:20:13.104Z,95399.97
2022-10-17T00:22:39.924Z,95406.19
2022-10-17T00:25:07.031Z,95410.84
2022-10-17T00:27:38.283Z,95407.25
2022-10-17T00:30:06.587Z,95411.66
2022-10-17T00:32:33.196Z,95418.53
2022-10-17T00:34:59.680Z,95418.69
2022-10-17T00:37:26.139Z,95408.72
2022-10-17T00:39:53.896Z,95427.69
2022-10-17T00:42:20.438Z,95418.69
2022-10-17T00:44:47.539Z,95420.06
2022-10-17T00:47:19.508Z,95418.13
2022-10-17T00:49:46.243Z,95429.44
2022-10-17T00:52:20.830Z,95419.91
2022-10-17T00:54:51.621Z,95417.88
2022-10-17T00:57:18.206Z,95415.66
2022-10-17T00:59:49.741Z,95429.97
2022-10-17T01:02:19.620Z,95420.47
2022-10-17T01:04:48.991Z,95421.34
2022-10-17T01:07:15.453Z,95420.28
2022-10-17T01:09:44.380Z,95436.34
2022-10-17T01:12:23.345Z,95428.91
2022-10-17T01:15:26.996Z,95431.84
2022-10-17T01:18:14.658Z,95426.00
2022-10-17T01:21:15.134Z,95432.53
2022-10-17T01:24:21.738Z,95425.38
2022-10-17T01:27:08.611Z,95427.13
2022-10-17T01:30:10.387Z,95419.16
2022-10-17T01:32:54.146Z,95412.56
2022-10-17T01:35:50.792Z,95427.97
2022-10-17T01:38:53.132Z,95415.28
2022-10-17T01:41:32.191Z,95396.63
2022-10-17T01:44:18.119Z,95398.91
2022-10-17T01:46:50.237Z,95405.59
2022-10-17T01:49:22.637Z,95410.94
2022-10-17T01:51:54.380Z,95414.41
2022-10-17T01:54:41.551Z,95407.13
2022-10-17T01:57:14.024Z,95401.97
2022-10-17T01:59:44.304Z,95413.47
2022-10-17T02:02:13.737Z,95405.63
2022-10-17T02:04:41.268Z,95404.94
2022-10-17T02:07:13.305Z,95403.00
2022-10-17T02:09:40.275Z,95404.16
2022-10-17T02:12:32.819Z,95404.66
2022-10-17T02:15:08.245Z,95409.34
2022-10-17T02:17:48.422Z,95404.16
2022-10-17T02:20:43.956Z,95395.06
2022-10-17T02:23:25.409Z,95399.81
2022-10-17T02:26:04.918Z,95404.69
2022-10-17T02:29:00.670Z,95398.75
2022-10-17T02:31:35.119Z,95398.28
2022-10-17T02:34:07.904Z,95406.28
2022-10-17T02:36:43.783Z,95402.19
2022-10-17T02:39:12.076Z,95399.31
2022-10-17T02:41:40.342Z,95405.34
2022-10-17T02:44:08.421Z,95399.06
2022-10-17T02:46:37.337Z,95391.31
2022-10-17T02:49:22.506Z,95393.34
2022-10-17T02:52:14.944Z,95409.66
2022-10-17T02:54:57.291Z,95412.84
2022-10-17T02:57:44.412Z,95407.63
2022-10-17T03:00:13.598Z,95410.94
2022-10-17T03:02:43.191Z,95416.59
2022-10-17T03:05:10.735Z,95415.69
2022-10-17T03:07:37.163Z,95422.47
2022-10-17T03:10:04.175Z,95413.84
2022-10-17T03:12:30.959Z,95419.22
2022-10-17T03:14:57.671Z,95423.38
2022-10-17T03:17:24.083Z,95427.00
2022-10-17T03:19:50.529Z,95422.25
2022-10-17T03:22:16.928Z,95420.16
2022-10-17T03:24:43.320Z,95427.16
2022-10-17T03:27:09.767Z,95427.50
2022-10-17T03:29:36.180Z,95433.31
2022-10-17T03:32:02.605Z,95428.94
2022-10-17T03:34:29.172Z,95432.66
2022-10-17T03:36:55.553Z,95435.38
2022-10-17T03:39:22.021Z,95427.63
2022-10-17T03:41:48.472Z,95436.75
2022-10-17T03:44:15.003Z,95419.53
2022-10-17T03:46:42.045Z,95429.59
2022-10-17T03:49:11.607Z,95438.66
2022-10-17T03:51:38.098Z,95438.81
2022-10-17T03:54:04.731Z,95434.81
2022-10-17T03:56:31.132Z,95437.34
2022-10-17T03:58:57.614Z,95451.94
2022-10-17T04:01:24.348Z,95439.72
2022-10-17T04:03:54.022Z,95438.31
2022-10-17T04:06:21.101Z,95435.97
2022-10-17T04:08:48.266Z,95427.97
2022-10-17T04:11:19.957Z,95435.47
2022-10-17T04:13:46.437Z,95427.88
2022-10-17T04:16:17.173Z,95424.25
2022-10-17T04:18:44.486Z,95426.59
2022-10-17T04:21:12.233Z,95434.66
2022-10-17T04:23:39.042Z,95424.06
2022-10-17T04:26:06.688Z,95427.16
2022-10-17T04:28:33.759Z,95424.41
2022-10-17T04:31:03.056Z,95430.59
2022-10-17T04:33:31.150Z,95433.66
2022-10-17T04:36:02.136Z,95432.25
2022-10-17T04:38:29.420Z,95431.13
2022-10-17T04:41:04.853Z,95425.25
2022-10-17T04:43:32.643Z,95429.28
2022-10-17T04:46:00.324Z,95432.13
2022-10-17T04:48:28.137Z,95440.16
2022-10-17T04:51:08.781Z,95436.38
2022-10-17T04:53:36.869Z,95445.75
2022-10-17T04:56:09.811Z,95440.59
2022-10-17T04:58:36.835Z,95434.38
2022-10-17T05:01:12.685Z,95449.97
2022-10-17T05:03:39.893Z,95452.94
2022-10-17T05:06:14.766Z,95462.53
2022-10-17T05:08:41.926Z,95464.53
2022-10-17T05:11:23.610Z,95466.31
2022-10-17T05:13:58.359Z,95463.81
2022-10-17T05:16:25.784Z,95461.13
2022-10-17T05:18:54.894Z,95468.25
2022-10-17T05:21:23.716Z,95477.69
2022-10-17T05:23:50.856Z,95481.47
2022-10-17T05:26:17.853Z,95479.69
2022-10-17T05:28:44.404Z,95480.44
2022-10-17T05:31:11.573Z,95481.34
2022-10-17T05:33:39.115Z,95492.19
2022-10-17T05:36:06.512Z,95484.56
2022-10-17T05:38:33.588Z,95489.06
2022-10-17T05:41:01.815Z,95492.63
2022-10-17T05:43:28.659Z,95500.19
2022-10-17T05:45:55.756Z,95507.81
2022-10-17T05:48:23.896Z,95511.06
2022-10-17T05:50:50.274Z,95519.63
2022-10-17T05:53:17.085Z,95511.97
2022-10-17T05:55:43.475Z,95511.31
2022-10-17T05:58:17.601Z,95527.19
2022-10-17T06:00:48.773Z,95531.06
2022-10-17T06:03:15.253Z,95542.94
2022-10-17T06:05:41.717Z,95545.88
2022-10-17T06:08:08.154Z,95557.59
2022-10-17T06:10:34.637Z,95556.31
2022-10-17T06:13:01.093Z,95561.16
2022-10-17T06:15:27.527Z,95564.75
2022-10-17T06:17:53.974Z,95564.63
2022-10-17T06:20:20.343Z,95571.41
2022-10-17T06:22:46.770Z,95573.16
2022-10-17T06:25:13.340Z,95583.00
2022-10-17T06:27:39.855Z,95589.97
2022-10-17T06:30:06.836Z,95595.94
2022-10-17T06:32:33.351Z,95597.59
2022-10-17T06:34:59.766Z,95598.75
2022-10-17T06:37:26.474Z,95603.03
2022-10-17T06:39:53.628Z,95603.25
2022-10-17T06:42:20.071Z,95609.50
2022-10-17T06:44:46.439Z,95609.91
2022-10-17T06:47:15.412Z,95612.13
2022-10-17T06:49:44.389Z,95620.94
2022-10-17T06:52:10.854Z,95620.47
2022-10-17T06:54:37.260Z,95614.91
2022-10-17T06:57:03.728Z,95614.44
2022-10-17T06:59:30.087Z,95609.72
2022-10-17T07:01:56.535Z,95614.78
2022-10-17T07:04:22.918Z,95608.66
2022-10-17T07:06:49.349Z,95615.28
2022-10-17T07:09:16.985Z,95608.59
2022-10-17T07:11:43.579Z,95605.31
2022-10-17T07:14:10.080Z,95608.47
2022-10-17T07:16:37.052Z,95606.72
2022-10-17T07:19:03.715Z,95609.38
2022-10-17T07:21:32.095Z,95609.16
2022-10-17T07:24:00.391Z,95613.78
2022-10-17T07:26:26.819Z,95606.34
2022-10-17T07:28:55.542Z,95611.94
2022-10-17T07:31:22.902Z,95618.19
2022-10-17T07:33:49.869Z,95615.84
2022-10-17T07:36:17.589Z,95616.19
2022-10-17T07:38:44.141Z,95618.22
2022-10-17T07:41:11.983Z,95623.44
2022-10-17T07:43:38.822Z,95620.44
2022-10-17T07:46:06.339Z,95627.47
2022-10-17T07:48:32.847Z,95632.94
2022-10-17T07:51:02.568Z,95637.69
2022-10-17T07:53:29.072Z,95629.94
2022-10-17T07:55:55.502Z,95625.84
2022-10-17T07:58:21.937Z,95622.13
2022-10-17T08:00:49.045Z,95624.91
2022-10-17T08:03:15.624Z,95627.41
2022-10-17T08:05:42.190Z,95627.69
2022-10-17T08:08:08.760Z,95632.06
2022-10-17T08:10:35.183Z,95626.50
2022-10-17T08:13:02.506Z,95614.25
2022-10-17T08:15:31.742Z,95621.44
2022-10-17T08:17:59.433Z,95616.56
2022-10-17T08:20:26.345Z,95611.06
2022-10-17T08:22:56.430Z,95614.47
2022-10-17T08:25:23.296Z,95614.41
2022-10-17T08:27:50.019Z,95623.38
2022-10-17T08:30:17.096Z,95608.75
2022-10-17T08:32:44.005Z,95609.41
2022-10-17T08:35:10.888Z,95608.56
2022-10-17T08:37:37.431Z,95603.22
2022-10-17T08:40:04.496Z,95614.16
2022-10-17T08:42:55.379Z,95611.13
2022-10-17T08:45:24.756Z,95605.03
2022-10-17T08:48:13.610Z,95599.06
2022-10-17T08:50:53.920Z,95611.47
2022-10-17T08:53:35.792Z,95604.22
2022-10-17T08:56:19.536Z,95598.09
2022-10-17T08:58:51.763Z,95605.72
2022-10-17T09:01:24.131Z,95609.94
2022-10-17T09:04:09.871Z,95602.78
2022-10-17T09:06:42.959Z,95612.22
2022-10-17T09:09:46.826Z,95611.22
2022-10-17T09:12:28.323Z,95608.88
2022-10-17T09:15:08.373Z,95611.44
2022-10-17T09:17:58.087Z,95606.91
2022-10-17T09:20:31.903Z,95605.19
2022-10-17T09:23:06.884Z,95605.50
2022-10-17T09:25:42.469Z,95603.28
2022-10-17T09:28:35.273Z,95614.31
2022-10-17T09:31:11.770Z,95619.50
2022-10-17T09:33:54.446Z,95630.81
2022-10-17T09:36:25.945Z,95627.06
2022-10-17T09:38:55.513Z,95611.88
2022-10-17T09:41:49.304Z,95629.25
2022-10-17T09:44:44.073Z,95625.19
2022-10-17T09:47:13.518Z,95629.25
2022-10-17T09:49:45.518Z,95618.13
2022-10-17T09:52:17.261Z,95624.13
2022-10-17T09:54:50.396Z,95620.94
2022-10-17T09:57:18.904Z,95624.78
2022-10-17T10:00:07.426Z,95618.88
2022-10-17T10:02:40.649Z,95619.66
2022-10-17T10:05:17.492Z,95626.94
2022-10-17T10:08:01.600Z,95633.38
2022-10-17T10:10:29.557Z,95638.19
2022-10-17T10:13:14.167Z,95642.22
2022-10-17T10:15:43.246Z,95647.53
2022-10-17T10:18:25.057Z,95642.41
2022-10-17T10:21:08.976Z,95643.34
2022-10-17T10:23:40.087Z,95645.22
2022-10-17T10:26:33.212Z,95635.97
2022-10-17T10:29:20.961Z,95647.13
2022-10-17T10:31:48.077Z,95633.75
2022-10-17T10:34:20.395Z,95633.88
2022-10-17T10:36:53.569Z,95648.66
2022-10-17T10:39:31.991Z,95641.81
2022-10-17T10:42:00.074Z,95649.47
2022-10-17T10:44:30.652Z,95635.13
2022-10-17T10:47:17.378Z,95637.44
2022-10-17T10:49:44.080Z,95640.16
2022-10-17T10:52:19.642Z,95645.38
2022-10-17T10:54:55.457Z,95649.47
2022-10-17T10:57:25.487Z,95640.94
2022-10-17T11:00:00.020Z,95649.09
2022-10-17T11:02:42.776Z,95652.63
2022-10-17T11:05:24.400Z,95650.09
2022-10-17T11:08:03.734Z,95643.44
2022-10-17T11:10:30.094Z,95644.63
2022-10-17T11:13:04.600Z,95640.78
2022-10-17T11:15:57.658Z,95638.75
2022-10-17T11:18:42.181Z,95628.81
2022-10-17T11:21:36.210Z,95634.41
2022-10-17T11:24:25.290Z,95632.72
2022-10-17T11:27:04.094Z,95637.94
2022-10-17T11:29:36.726Z,95633.75
2022-10-17T11:32:15.508Z,95637.38
2022-10-17T11:34:49.014Z,95639.31
2022-10-17T11:37:23.161Z,95648.72
2022-10-17T11:40:02.082Z,95640.88
2022-10-17T11:42:38.661Z,95645.69
2022-10-17T11:45:14.739Z,95643.63
2022-10-17T11:47:47.862Z,95635.78
2022-10-17T11:53:16.072Z,95643.91
2022-10-17T11:55:44.465Z,95639.88
2022-10-17T12:01:22.776Z,95636.59
2022-10-17T12:04:13.511Z,95635.97
2022-10-17T12:06:54.932Z,95632.06
2022-10-17T12:09:40.798Z,95627.88
2022-10-17T12:12:07.682Z,95627.06
2022-10-17T12:14:42.615Z,95630.31
2022-10-17T12:17:28.067Z,95624.44
2022-10-17T12:20:17.286Z,95627.75
2022-10-17T12:22:48.379Z,95628.81
2022-10-17T12:25:21.416Z,95619.44
2022-10-17T12:27:50.123Z,95618.41
2022-10-17T12:30:23.260Z,95616.16
2022-10-17T12:33:09.150Z,95610.91
2022-10-17T12:35:37.796Z,95612.09
2022-10-17T12:38:22.249Z,95611.75
2022-10-17T12:40:51.489Z,95610.50
2022-10-17T12:43:17.815Z,95607.56
2022-10-17T12:45:55.057Z,95614.97
2022-10-17T12:48:33.965Z,95608.00
2022-10-17T12:53:57.279Z,95616.00
2022-10-17T12:56:50.096Z,95616.38
2022-10-17T12:59:27.743Z,95605.19
2022-10-17T13:01:59.334Z,95612.63
2022-10-17T13:04:27.365Z,95612.91
2022-10-17T13:06:56.624Z,95600.75
2022-10-17T13:09:29.501Z,95605.84
2022-10-17T13:11:59.672Z,95598.25
2022-10-17T13:14:27.403Z,95605.53
2022-10-17T13:16:55.741Z,95609.28
2022-10-17T13:19:29.241Z,95609.09
2022-10-17T13:22:06.028Z,95597.13
2022-10-17T13:24:40.686Z,95601.97
2022-10-17T13:27:22.883Z,95608.78
2022-10-17T13:29:49.444Z,95613.69
2022-10-17T13:32:16.190Z,95607.44
2022-10-17T13:34:42.945Z,95602.03
2022-10-17T13:37:14.438Z,95600.19
2022-10-17T13:39:55.324Z,95595.94
2022-10-17T13:42:30.045Z,95598.88
2022-10-17T13:44:58.644Z,95592.47
2022-10-17T13:47:32.287Z,95598.53
2022-10-17T13:49:59.455Z,95597.91
2022-10-17T13:52:28.869Z,95608.41
2022-10-17T13:55:08.519Z,95597.09
2022-10-17T13:57:35.045Z,95596.41
2022-10-17T14:00:11.753Z,95603.13
2022-10-17T14:02:41.019Z,95592.53
2022-10-17T14:05:17.743Z,95599.97
2022-10-17T14:10:42.408Z,95595.19
2022-10-17T14:13:20.617Z,95588.69
2022-10-17T14:15:47.260Z,95593.22
2022-10-17T14:18:19.656Z,95598.56
2022-10-17T14:21:31.774Z,95599.34
2022-10-17T14:23:41.457Z,95600.94
2022-10-17T14:26:15.699Z,95604.66
2022-10-17T14:28:45.367Z,95609.19
2022-10-17T14:31:17.910Z,95597.66
2022-10-17T14:33:50.518Z,95599.75
2022-10-17T14:36:18.235Z,95599.47
2022-10-17T14:38:47.658Z,95601.03
2022-10-17T14:41:42.289Z,95607.19
2022-10-17T14:44:22.361Z,95607.50
2022-10-17T14:46:53.429Z,95607.47
2022-10-17T14:49:26.128Z,95614.16
2022-10-17T14:52:17.723Z,95612.81
2022-10-17T14:54:48.466Z,95617.09
2022-10-17T14:57:18.721Z,95616.56
2022-10-17T14:59:54.194Z,95624.31
2022-10-17T15:02:22.064Z,95622.19
2022-10-17T15:04:48.491Z,95627.28
2022-10-17T15:07:16.556Z,95631.59
2022-10-17T15:09:44.236Z,95617.91
2022-10-17T15:12:20.031Z,95615.50
2022-10-17T15:14:48.416Z,95630.00
2022-10-17T15:17:20.518Z,95629.44
2022-10-17T15:19:47.851Z,95625.97
2022-10-17T15:22:16.061Z,95621.88
2022-10-17T15:24:42.559Z,95627.50
2022-10-17T15:27:23.556Z,95635.00
2022-10-17T15:29:51.481Z,95635.25
2022-10-17T15:32:17.938Z,95648.13
2022-10-17T15:34:44.619Z,95640.91
2022-10-17T15:37:17.867Z,95647.91
2022-10-17T15:39:45.826Z,95657.72
2022-10-17T15:42:12.638Z,95659.47
2022-10-17T15:44:40.383Z,95658.03
2022-10-17T15:47:11.697Z,95660.44
2022-10-17T15:49:38.101Z,95656.69
2022-10-17T15:52:05.679Z,95659.88
2022-10-17T15:54:32.099Z,95661.75
2022-10-17T15:56:58.679Z,95664.13
2022-10-17T15:59:30.383Z,95665.50
2022-10-17T16:01:56.837Z,95669.72
2022-10-17T16:04:26.745Z,95666.56
2022-10-17T16:06:53.420Z,95672.47
2022-10-17T16:09:19.886Z,95674.56
2022-10-17T16:11:46.453Z,95675.59
2022-10-17T16:14:15.970Z,95672.00
2022-10-17T16:16:42.962Z,95680.84
2022-10-17T16:19:09.444Z,95675.00
2022-10-17T16:21:38.849Z,95680.69
2022-10-17T16:24:05.605Z,95678.50
2022-10-17T16:26:32.641Z,95681.19
2022-10-17T16:29:02.764Z,95684.38
2022-10-17T16:31:33.126Z,95684.94
2022-10-17T16:34:00.916Z,95685.69
2022-10-17T16:36:27.376Z,95692.63
2022-10-17T16:38:54.209Z,95695.56
2022-10-17T16:41:26.708Z,95693.22
2022-10-17T16:43:55.189Z,95700.53
2022-10-17T16:46:22.335Z,95689.81
2022-10-17T16:48:48.955Z,95701.69
2022-10-17T16:51:18.056Z,95695.00
2022-10-17T16:53:50.195Z,95699.22
2022-10-17T16:56:20.083Z,95698.72
2022-10-17T16:58:47.212Z,95703.25
2022-10-17T17:01:16.974Z,95694.94
2022-10-17T17:03:44.944Z,95704.88
2022-10-17T17:06:24.380Z,95707.63
2022-10-17T17:08:51.080Z,95713.25
2022-10-17T17:11:19.117Z,95716.38
2022-10-17T17:13:45.631Z,95720.13
2022-10-17T17:16:14.741Z,95715.59
2022-10-17T17:18:42.402Z,95724.69
2022-10-17T17:21:10.405Z,95726.53
2022-10-17T17:23:40.703Z,95728.06
2022-10-17T17:34:55.191Z,95728.41
2022-10-17T17:37:21.642Z,95726.28
2022-10-17T17:39:48.013Z,95737.00
2022-10-17T17:42:14.448Z,95737.00
2022-10-17T17:44:40.833Z,95738.56
2022-10-17T17:47:07.808Z,95741.25
2022-10-17T17:49:34.257Z,95741.88
2022-10-17T17:52:00.774Z,95750.50
2022-10-17T17:54:27.212Z,95742.72
2022-10-17T17:56:53.640Z,95751.75
2022-10-17T17:59:20.045Z,95743.22
2022-10-17T18:01:46.695Z,95745.09
2022-10-17T18:04:13.358Z,95751.75
2022-10-17T18:06:40.127Z,95747.72
2022-10-17T18:09:08.159Z,95749.09
2022-10-17T18:11:35.553Z,95749.34
2022-10-17T18:14:05.317Z,95748.13
2022-10-17T18:16:34.253Z,95763.34
2022-10-17T18:19:06.700Z,95758.09
2022-10-17T18:21:33.777Z,95755.63
2022-10-17T18:24:00.244Z,95755.69
2022-10-17T18:26:27.531Z,95760.28
2022-10-17T18:28:54.080Z,95766.47
2022-10-17T18:31:25.037Z,95769.63
2022-10-17T18:33:53.005Z,95760.50
2022-10-17T18:36:20.267Z,95765.28
2022-10-17T18:38:47.191Z,95761.00
2022-10-17T18:41:17.198Z,95758.13
2022-10-17T18:43:45.355Z,95757.25
2022-10-17T18:46:15.059Z,95757.75
2022-10-17T18:48:44.514Z,95755.69
2022-10-17T18:51:12.262Z,95765.28
2022-10-17T18:53:41.067Z,95762.25
2022-10-17T18:56:08.029Z,95757.50
2022-10-17T18:58:34.840Z,95767.81
2022-10-17T19:01:06.319Z,95768.13
2022-10-17T19:03:33.147Z,95765.97
2022-10-17T19:06:07.527Z,95762.72
2022-10-17T19:08:34.832Z,95761.44
2022-10-17T19:11:15.309Z,95758.34
2022-10-17T19:16:24.589Z,95765.84
2022-10-17T19:18:53.691Z,95762.38
2022-10-17T19:21:22.028Z,95766.41
2022-10-17T19:23:51.300Z,95760.00
2022-10-17T19:26:18.531Z,95757.59
2022-10-17T19:28:45.196Z,95758.69
2022-10-17T19:31:15.408Z,95764.13
2022-10-17T19:33:44.191Z,95769.34
2022-10-17T19:36:11.821Z,95764.50
2022-10-17T19:38:38.786Z,95761.00
2022-10-17T19:41:07.761Z,95768.53
2022-10-17T19:43:40.007Z,95771.78
2022-10-17T19:46:09.428Z,95766.59
2022-10-17T19:48:36.820Z,95772.19
2022-10-17T19:51:04.853Z,95775.13
2022-10-17T19:53:31.326Z,95783.41
2022-10-17T19:55:59.000Z,95780.16
2022-10-17T19:58:26.710Z,95794.09
2022-10-17T20:00:56.782Z,95791.78
2022-10-17T20:03:24.753Z,95795.34
2022-10-17T20:05:51.627Z,95798.56
2022-10-17T20:08:18.381Z,95798.88
2022-10-17T20:10:46.171Z,95798.06
2022-10-17T20:13:13.392Z,95804.56
2022-10-17T20:15:40.444Z,95800.19
2022-10-17T20:18:07.973Z,95798.31
2022-10-17T20:20:35.560Z,95801.63
2022-10-17T20:23:02.953Z,95799.44
2022-10-17T20:25:29.559Z,95806.03
2022-10-17T20:27:55.980Z,95815.44
2022-10-17T20:30:22.632Z,95819.50
2022-10-17T20:32:49.172Z,95820.56
2022-10-17T20:35:15.581Z,95816.84
2022-10-17T20:37:42.815Z,95828.72
2022-10-17T20:40:34.010Z,95816.59
2022-10-17T20:42:56.361Z,95816.66
2022-10-17T20:45:37.372Z,95815.84
2022-10-17T20:48:17.684Z,95808.81
2022-10-17T20:50:44.411Z,95818.47
2022-10-17T20:53:35.367Z,95816.09
2022-10-17T20:56:03.551Z,95818.78
2022-10-17T20:58:30.069Z,95813.66
2022-10-17T21:00:56.523Z,95819.25
2022-10-17T21:03:23.443Z,95821.75
2022-10-17T21:05:49.873Z,95821.84
2022-10-17T21:08:16.309Z,95813.66
2022-10-17T21:10:42.784Z,95813.88
2022-10-17T21:13:09.148Z,95823.91
2022-10-17T21:15:35.581Z,95822.44
2022-10-17T21:18:02.252Z,95811.16
2022-10-17T21:20:28.720Z,95811.41
2022-10-17T21:22:55.367Z,95809.84
2022-10-17T21:25:21.800Z,95802.66
2022-10-17T21:27:48.244Z,95801.03
2022-10-17T21:30:14.738Z,95795.69
2022-10-17T21:32:51.526Z,95795.94
2022-10-17T21:35:18.521Z,95793.25
2022-10-17T21:37:44.970Z,95793.34
2022-10-17T21:40:12.191Z,95782.41
2022-10-17T21:42:38.567Z,95788.00
2022-10-17T21:45:10.756Z,95781.53
2022-10-17T21:47:55.026Z,95783.78
2022-10-17T21:50:29.212Z,95794.09
2022-10-17T21:52:55.575Z,95790.47
2022-10-17T21:55:22.025Z,95783.44
2022-10-17T21:57:49.591Z,95787.59
2022-10-17T22:00:16.117Z,95794.00
2022-10-17T22:02:42.519Z,95791.72
2022-10-17T22:05:09.474Z,95793.03
2022-10-17T22:07:35.877Z,95794.41
2022-10-17T22:10:02.672Z,95800.06
2022-10-17T22:12:29.456Z,95794.09
2022-10-17T22:14:56.144Z,95792.69
2022-10-17T22:17:22.589Z,95796.44
2022-10-17T22:19:49.003Z,95791.22
2022-10-17T22:22:15.383Z,95783.19
2022-10-17T22:24:41.809Z,95789.91
2022-10-17T22:27:10.286Z,95796.66
2022-10-17T22:29:36.696Z,95793.66
2022-10-17T22:32:03.205Z,95790.88
2022-10-17T22:34:29.650Z,95793.81
2022-10-17T22:36:56.051Z,95789.44
2022-10-17T22:39:22.452Z,95800.66
2022-10-17T22:41:48.857Z,95788.38
2022-10-17T22:44:15.243Z,95790.31
2022-10-17T22:46:41.727Z,95785.94
2022-10-17T22:49:08.464Z,95790.16
2022-10-17T22:51:34.910Z,95796.16
2022-10-17T22:54:01.560Z,95795.91
2022-10-17T22:56:28.039Z,95799.13
2022-10-17T22:58:54.481Z,95805.88
2022-10-17T23:01:23.344Z,95796.06
2022-10-17T23:03:51.180Z,95801.16
2022-10-17T23:06:18.045Z,95797.75
2022-10-17T23:08:45.029Z,95795.03
2022-10-17T23:11:11.690Z,95802.97
2022-10-17T23:13:39.709Z,95797.41
2022-10-17T23:16:06.464Z,95790.78
2022-10-17T23:18:33.450Z,95787.97
2022-10-17T23:20:59.910Z,95796.44
2022-10-17T23:23:26.329Z,95798.69
2022-10-17T23:25:52.892Z,95790.78
2022-10-17T23:28:19.343Z,95799.50
2022-10-17T23:30:46.128Z,95792.31
2022-10-17T23:33:13.471Z,95785.69
2022-10-17T23:35:40.433Z,95790.13
2022-10-17T23:38:07.029Z,95789.63
2022-10-17T23:40:34.811Z,95784.47
2022-10-17T23:43:01.358Z,95776.72
2022-10-17T23:45:27.888Z,95775.09
2022-10-17T23:47:54.384Z,95769.25
2022-10-17T23:50:20.765Z,95772.28
2022-10-17T23:52:47.263Z,95773.25
2022-10-17T23:55:13.696Z,95777.97
2022-10-17T23:57:40.140Z,95762.28
